createdAt,value
2018-03-22T00:00:21.540Z,979.68
2018-03-22T00:01:21.521Z,979.63
2018-03-22T00:02:21.509Z,979.70
2018-03-22T00:03:21.482Z,979.64
2018-03-22T00:04:21.460Z,979.66
2018-03-22T00:05:21.442Z,979.66
2018-03-22T00:06:21.422Z,979.66
2018-03-22T00:07:21.401Z,979.68
2018-03-22T00:08:21.382Z,979.67
2018-03-22T00:09:21.365Z,979.71
2018-03-22T00:10:21.341Z,979.65
2018-03-22T00:11:21.319Z,979.62
2018-03-22T00:12:21.301Z,979.64
2018-03-22T00:13:21.281Z,979.64
2018-03-22T00:14:21.260Z,979.64
2018-03-22T00:15:21.240Z,979.65
2018-03-22T00:16:21.220Z,979.64
2018-03-22T00:17:21.201Z,979.59
2018-03-22T00:18:21.198Z,979.59
2018-03-22T00:19:21.158Z,979.58
2018-03-22T00:20:21.137Z,979.57
2018-03-22T00:21:21.124Z,979.59
2018-03-22T00:22:21.099Z,979.56
2018-03-22T00:23:21.076Z,979.52
2018-03-22T00:24:21.058Z,979.53
2018-03-22T00:25:21.041Z,979.52
2018-03-22T00:26:21.022Z,979.53
2018-03-22T00:27:20.998Z,979.48
2018-03-22T00:28:20.983Z,979.51
2018-03-22T00:29:20.961Z,979.54
2018-03-22T00:30:20.942Z,979.48
2018-03-22T00:31:20.915Z,979.48
2018-03-22T00:32:20.894Z,979.46
2018-03-22T00:33:20.873Z,979.42
2018-03-22T00:34:20.852Z,979.45
2018-03-22T00:35:20.831Z,979.43
2018-03-22T00:36:20.809Z,979.45
2018-03-22T00:37:20.791Z,979.39
2018-03-22T00:38:20.769Z,979.37
2018-03-22T00:39:20.751Z,979.42
2018-03-22T00:40:20.727Z,979.41
2018-03-22T00:41:20.708Z,979.38
2018-03-22T00:42:20.694Z,979.36
2018-03-22T00:43:20.676Z,979.34
2018-03-22T00:44:20.646Z,979.32
2018-03-22T00:45:20.635Z,979.35
2018-03-22T00:46:20.610Z,979.34
2018-03-22T00:47:20.595Z,979.32
2018-03-22T00:48:20.566Z,979.36
2018-03-22T00:49:20.551Z,979.35
2018-03-22T00:50:20.526Z,979.34
2018-03-22T00:51:20.505Z,979.38
2018-03-22T00:52:20.482Z,979.34
2018-03-22T00:53:20.464Z,979.33
2018-03-22T00:54:20.445Z,979.31
2018-03-22T00:55:20.429Z,979.30
2018-03-22T00:56:20.402Z,979.30
2018-03-22T00:57:20.384Z,979.30
2018-03-22T00:58:20.364Z,979.28
2018-03-22T00:59:20.341Z,979.27
2018-03-22T01:00:20.320Z,979.21
2018-03-22T01:01:20.304Z,979.21
2018-03-22T01:02:20.279Z,979.20
2018-03-22T01:03:20.262Z,979.16
2018-03-22T01:04:20.239Z,979.13
2018-03-22T01:05:20.219Z,979.11
2018-03-22T01:06:20.197Z,979.10
2018-03-22T01:07:20.181Z,979.03
2018-03-22T01:08:20.156Z,979.00
2018-03-22T01:09:20.136Z,979.03
2018-03-22T01:10:20.116Z,979.04
2018-03-22T01:11:20.100Z,979.00
2018-03-22T01:12:20.074Z,978.98
2018-03-22T01:13:20.059Z,978.97
2018-03-22T01:14:20.042Z,978.95
2018-03-22T01:15:20.019Z,978.94
2018-03-22T01:16:20.000Z,978.93
2018-03-22T01:17:19.974Z,978.96
2018-03-22T01:18:19.957Z,978.94
2018-03-22T01:19:19.931Z,978.94
2018-03-22T01:20:19.911Z,978.92
2018-03-22T01:21:19.889Z,978.93
2018-03-22T01:22:19.868Z,978.90
2018-03-22T01:23:19.850Z,978.88
2018-03-22T01:24:19.828Z,978.86
2018-03-22T01:25:19.807Z,978.85
2018-03-22T01:26:19.788Z,978.83
2018-03-22T01:27:19.769Z,978.83
2018-03-22T01:28:19.746Z,978.82
2018-03-22T01:29:19.725Z,978.82
2018-03-22T01:30:19.704Z,978.80
2018-03-22T01:31:19.684Z,978.79
2018-03-22T01:32:19.670Z,978.81
2018-03-22T01:33:19.642Z,978.80
2018-03-22T01:34:19.631Z,978.78
2018-03-22T01:35:19.603Z,978.74
2018-03-22T01:36:19.588Z,978.73
2018-03-22T01:37:19.562Z,978.68
2018-03-22T01:38:19.583Z,978.68
2018-03-22T01:39:19.519Z,978.68
2018-03-22T01:40:19.498Z,978.66
2018-03-22T01:41:19.482Z,978.67
2018-03-22T01:42:19.456Z,978.68
2018-03-22T01:43:19.437Z,978.66
2018-03-22T01:44:19.418Z,978.63
2018-03-22T01:45:19.402Z,978.64
2018-03-22T01:46:19.385Z,978.61
2018-03-22T01:47:19.354Z,978.62
2018-03-22T01:48:19.338Z,978.65
2018-03-22T01:49:19.313Z,978.60
2018-03-22T01:50:19.291Z,978.61
2018-03-22T01:51:19.272Z,978.55
2018-03-22T01:52:19.249Z,978.58
2018-03-22T01:53:19.229Z,978.57
2018-03-22T01:54:19.209Z,978.51
2018-03-22T01:55:19.187Z,978.57
2018-03-22T01:56:19.167Z,978.54
2018-03-22T01:57:19.151Z,978.53
2018-03-22T01:58:19.128Z,978.51
2018-03-22T01:59:19.105Z,978.48
2018-03-22T02:00:19.082Z,978.49
2018-03-22T02:01:19.068Z,978.46
2018-03-22T02:02:19.048Z,978.47
2018-03-22T02:03:19.028Z,978.46
2018-03-22T02:04:19.006Z,978.43
2018-03-22T02:05:18.979Z,978.44
2018-03-22T02:06:18.964Z,978.43
2018-03-22T02:07:18.940Z,978.38
2018-03-22T02:08:18.919Z,978.42
2018-03-22T02:09:18.902Z,978.45
2018-03-22T02:10:18.878Z,978.36
2018-03-22T02:11:18.857Z,978.34
2018-03-22T02:12:18.840Z,978.39
2018-03-22T02:13:18.816Z,978.39
2018-03-22T02:14:18.796Z,978.37
2018-03-22T02:15:18.771Z,978.32
2018-03-22T02:16:18.754Z,978.33
2018-03-22T02:17:18.729Z,978.32
2018-03-22T02:18:18.709Z,978.30
2018-03-22T02:19:18.691Z,978.29
2018-03-22T02:20:18.669Z,978.26
2018-03-22T02:21:18.646Z,978.28
2018-03-22T02:22:18.628Z,978.24
2018-03-22T02:23:18.605Z,978.26
2018-03-22T02:24:18.584Z,978.24
2018-03-22T02:25:18.569Z,978.26
2018-03-22T02:26:18.543Z,978.24
2018-03-22T02:27:18.524Z,978.23
2018-03-22T02:28:18.505Z,978.23
2018-03-22T02:29:18.485Z,978.22
2018-03-22T02:30:18.461Z,978.20
2018-03-22T02:31:18.456Z,978.22
2018-03-22T02:32:18.417Z,978.19
2018-03-22T02:33:18.408Z,978.15
2018-03-22T02:34:18.385Z,978.08
2018-03-22T02:35:18.366Z,978.12
2018-03-22T02:36:18.343Z,978.08
2018-03-22T02:37:18.314Z,978.04
2018-03-22T02:38:18.296Z,978.07
2018-03-22T02:39:18.278Z,978.09
2018-03-22T02:40:18.256Z,978.03
2018-03-22T02:41:18.232Z,978.06
2018-03-22T02:42:18.209Z,978.03
2018-03-22T02:43:18.188Z,978.01
2018-03-22T02:44:18.172Z,978.04
2018-03-22T02:45:18.145Z,978.04
2018-03-22T02:46:18.124Z,978.07
2018-03-22T02:47:18.104Z,978.04
2018-03-22T02:48:18.082Z,978.04
2018-03-22T02:49:18.063Z,978.05
2018-03-22T02:50:18.042Z,978.02
2018-03-22T02:51:18.021Z,977.98
2018-03-22T02:52:18.004Z,978.01
2018-03-22T02:53:17.981Z,977.99
2018-03-22T02:54:17.960Z,977.97
2018-03-22T02:55:17.940Z,977.95
2018-03-22T02:56:17.916Z,977.95
2018-03-22T02:57:17.894Z,977.90
2018-03-22T02:58:17.878Z,977.92
2018-03-22T02:59:17.853Z,977.85
2018-03-22T03:00:17.832Z,977.89
2018-03-22T03:01:17.818Z,977.86
2018-03-22T03:02:17.794Z,977.80
2018-03-22T03:03:17.772Z,977.82
2018-03-22T03:04:17.747Z,977.82
2018-03-22T03:05:17.728Z,977.82
2018-03-22T03:06:17.711Z,977.84
2018-03-22T03:07:17.685Z,977.80
2018-03-22T03:08:17.665Z,977.83
2018-03-22T03:09:17.643Z,977.81
2018-03-22T03:10:17.626Z,977.83
2018-03-22T03:11:17.603Z,977.86
2018-03-22T03:12:17.583Z,977.83
2018-03-22T03:13:17.561Z,977.83
2018-03-22T03:14:17.536Z,977.82
2018-03-22T03:15:17.516Z,977.88
2018-03-22T03:16:17.502Z,977.86
2018-03-22T03:17:17.475Z,977.86
2018-03-22T03:18:17.455Z,977.87
2018-03-22T03:19:17.433Z,977.87
2018-03-22T03:20:17.413Z,977.88
2018-03-22T03:21:17.394Z,977.93
2018-03-22T03:22:17.378Z,977.94
2018-03-22T03:23:17.350Z,977.95
2018-03-22T03:24:17.329Z,977.97
2018-03-22T03:25:17.311Z,977.97
2018-03-22T03:26:17.287Z,977.93
2018-03-22T03:27:17.264Z,977.97
2018-03-22T03:28:17.241Z,977.95
2018-03-22T03:29:17.222Z,977.97
2018-03-22T03:30:17.239Z,977.97
2018-03-22T03:31:17.180Z,977.95
2018-03-22T03:32:17.156Z,977.94
2018-03-22T03:33:17.143Z,977.97
2018-03-22T03:34:17.118Z,977.99
2018-03-22T03:35:17.102Z,977.94
2018-03-22T03:36:17.072Z,977.93
2018-03-22T03:37:17.057Z,977.93
2018-03-22T03:38:17.030Z,977.92
2018-03-22T03:39:17.009Z,977.93
2018-03-22T03:40:16.988Z,977.98
2018-03-22T03:41:16.998Z,977.89
2018-03-22T03:42:16.945Z,977.94
2018-03-22T03:43:16.933Z,977.88
2018-03-22T03:44:16.904Z,977.88
2018-03-22T03:45:16.886Z,977.85
2018-03-22T03:46:16.861Z,977.90
2018-03-22T03:47:16.842Z,977.88
2018-03-22T03:48:16.824Z,977.89
2018-03-22T03:49:16.798Z,977.87
2018-03-22T03:50:16.781Z,977.90
2018-03-22T03:51:16.758Z,977.90
2018-03-22T03:52:16.742Z,977.88
2018-03-22T03:53:16.712Z,977.88
2018-03-22T03:54:16.692Z,977.86
2018-03-22T03:55:16.672Z,977.85
2018-03-22T03:56:16.651Z,977.92
2018-03-22T03:57:16.637Z,977.87
2018-03-22T03:58:16.607Z,977.85
2018-03-22T03:59:16.585Z,977.85
2018-03-22T04:00:16.565Z,977.86
2018-03-22T04:01:16.542Z,977.84
2018-03-22T04:02:16.528Z,977.84
2018-03-22T04:03:16.507Z,977.85
2018-03-22T04:04:16.479Z,977.83
2018-03-22T04:05:16.458Z,977.83
2018-03-22T04:06:16.438Z,977.82
2018-03-22T04:07:16.416Z,977.81
2018-03-22T04:08:16.395Z,977.78
2018-03-22T04:09:16.376Z,977.81
2018-03-22T04:10:16.358Z,977.75
2018-03-22T04:11:16.339Z,977.72
2018-03-22T04:12:16.307Z,977.73
2018-03-22T04:13:16.294Z,977.70
2018-03-22T04:14:16.275Z,977.70
2018-03-22T04:15:16.256Z,977.70
2018-03-22T04:16:16.224Z,977.72
2018-03-22T04:17:16.209Z,977.69
2018-03-22T04:18:16.182Z,977.67
2018-03-22T04:19:16.160Z,977.66
2018-03-22T04:20:16.137Z,977.63
2018-03-22T04:21:16.118Z,977.63
2018-03-22T04:22:16.096Z,977.64
2018-03-22T04:23:16.075Z,977.61
2018-03-22T04:24:16.060Z,977.61
2018-03-22T04:25:16.038Z,977.59
2018-03-22T04:26:16.015Z,977.62
2018-03-22T04:27:16.040Z,977.61
2018-03-22T04:28:15.967Z,977.61
2018-03-22T04:29:15.948Z,977.60
2018-03-22T04:30:15.924Z,977.64
2018-03-22T04:31:15.915Z,977.60
2018-03-22T04:32:15.883Z,977.67
2018-03-22T04:33:15.862Z,977.66
2018-03-22T04:34:15.857Z,977.65
2018-03-22T04:35:15.820Z,977.65
2018-03-22T04:36:15.797Z,977.66
2018-03-22T04:37:15.776Z,977.68
2018-03-22T04:38:15.760Z,977.59
2018-03-22T04:39:15.735Z,977.59
2018-03-22T04:40:15.710Z,977.57
2018-03-22T04:41:15.691Z,977.53
2018-03-22T04:42:15.675Z,977.56
2018-03-22T04:43:15.656Z,977.54
2018-03-22T04:44:15.627Z,977.48
2018-03-22T04:45:15.604Z,977.50
2018-03-22T04:46:15.583Z,977.51
2018-03-22T04:47:15.564Z,977.46
2018-03-22T04:48:15.547Z,977.47
2018-03-22T04:49:15.521Z,977.49
2018-03-22T04:50:15.500Z,977.49
2018-03-22T04:51:15.478Z,977.42
2018-03-22T04:52:15.456Z,977.44
2018-03-22T04:53:15.439Z,977.40
2018-03-22T04:54:15.412Z,977.41
2018-03-22T04:55:15.391Z,977.39
2018-03-22T04:56:15.368Z,977.33
2018-03-22T04:57:15.357Z,977.39
2018-03-22T04:58:15.327Z,977.41
2018-03-22T04:59:15.350Z,977.38
2018-03-22T05:00:15.291Z,977.40
2018-03-22T05:01:15.265Z,977.40
2018-03-22T05:02:15.245Z,977.43
2018-03-22T05:03:15.219Z,977.40
2018-03-22T05:04:15.198Z,977.37
2018-03-22T05:05:15.179Z,977.36
2018-03-22T05:06:15.158Z,977.31
2018-03-22T05:07:15.137Z,977.28
2018-03-22T05:08:15.113Z,977.31
2018-03-22T05:09:15.091Z,977.31
2018-03-22T05:10:15.075Z,977.30
2018-03-22T05:11:15.065Z,977.29
2018-03-22T05:12:15.033Z,977.27
2018-03-22T05:13:15.013Z,977.24
2018-03-22T05:14:14.992Z,977.24
2018-03-22T05:15:14.966Z,977.25
2018-03-22T05:16:14.942Z,977.22
2018-03-22T05:17:14.921Z,977.27
2018-03-22T05:18:14.905Z,977.26
2018-03-22T05:19:14.885Z,977.26
2018-03-22T05:20:14.863Z,977.19
2018-03-22T05:21:14.839Z,977.20
2018-03-22T05:22:14.820Z,977.18
2018-03-22T05:23:14.797Z,977.19
2018-03-22T05:24:14.774Z,977.20
2018-03-22T05:25:14.752Z,977.19
2018-03-22T05:26:14.732Z,977.20
2018-03-22T05:27:14.711Z,977.18
2018-03-22T05:28:14.687Z,977.16
2018-03-22T05:29:14.670Z,977.16
2018-03-22T05:30:14.648Z,977.17
2018-03-22T05:31:14.621Z,977.18
2018-03-22T05:32:14.597Z,977.17
2018-03-22T05:33:14.576Z,977.24
2018-03-22T05:34:14.571Z,977.26
2018-03-22T05:35:14.542Z,977.23
2018-03-22T05:36:14.517Z,977.23
2018-03-22T05:37:14.491Z,977.18
2018-03-22T05:38:14.468Z,977.19
2018-03-22T05:39:14.450Z,977.17
2018-03-22T05:40:14.430Z,977.21
2018-03-22T05:41:14.404Z,977.24
2018-03-22T05:42:14.383Z,977.24
2018-03-22T05:43:14.370Z,977.27
2018-03-22T05:44:14.338Z,977.27
2018-03-22T05:45:14.323Z,977.30
2018-03-22T05:46:14.299Z,977.34
2018-03-22T05:47:14.275Z,977.41
2018-03-22T05:48:14.252Z,977.38
2018-03-22T05:49:14.232Z,977.44
2018-03-22T05:50:14.212Z,977.44
2018-03-22T05:51:14.193Z,977.44
2018-03-22T05:52:14.171Z,977.48
2018-03-22T05:53:14.147Z,977.45
2018-03-22T05:54:14.126Z,977.42
2018-03-22T05:55:14.112Z,977.46
2018-03-22T05:56:14.089Z,977.44
2018-03-22T05:57:14.074Z,977.49
2018-03-22T05:58:14.044Z,977.50
2018-03-22T05:59:14.020Z,977.48
2018-03-22T06:00:14.001Z,977.47
2018-03-22T06:01:13.982Z,977.46
2018-03-22T06:02:13.964Z,977.45
2018-03-22T06:03:13.933Z,977.46
2018-03-22T06:04:13.919Z,977.51
2018-03-22T06:05:13.890Z,977.49
2018-03-22T06:06:13.869Z,977.49
2018-03-22T06:07:13.848Z,977.50
2018-03-22T06:08:13.833Z,977.50
2018-03-22T06:09:13.818Z,977.48
2018-03-22T06:10:13.786Z,977.47
2018-03-22T06:11:13.768Z,977.46
2018-03-22T06:12:13.740Z,977.50
2018-03-22T06:13:13.719Z,977.48
2018-03-22T06:14:13.699Z,977.49
2018-03-22T06:15:13.680Z,977.46
2018-03-22T06:16:13.659Z,977.44
2018-03-22T06:17:13.634Z,977.42
2018-03-22T06:18:13.616Z,977.44
2018-03-22T06:19:13.600Z,977.42
2018-03-22T06:20:13.577Z,977.39
2018-03-22T06:21:13.552Z,977.37
2018-03-22T06:22:13.533Z,977.44
2018-03-22T06:23:13.508Z,977.44
2018-03-22T06:24:13.486Z,977.48
2018-03-22T06:25:13.466Z,977.48
2018-03-22T06:26:13.445Z,977.43
2018-03-22T06:27:13.422Z,977.47
2018-03-22T06:28:13.403Z,977.44
2018-03-22T06:29:13.395Z,977.44
2018-03-22T06:30:13.365Z,977.42
2018-03-22T06:31:13.340Z,977.44
2018-03-22T06:32:13.313Z,977.39
2018-03-22T06:33:13.293Z,977.44
2018-03-22T06:34:13.270Z,977.40
2018-03-22T06:35:13.255Z,977.45
2018-03-22T06:36:13.234Z,977.43
2018-03-22T06:37:13.208Z,977.43
2018-03-22T06:38:13.188Z,977.41
2018-03-22T06:39:13.167Z,977.39
2018-03-22T06:40:13.145Z,977.36
2018-03-22T06:41:13.122Z,977.31
2018-03-22T06:42:13.103Z,977.33
2018-03-22T06:43:13.081Z,977.34
2018-03-22T06:44:13.063Z,977.30
2018-03-22T06:45:13.039Z,977.28
2018-03-22T06:46:13.019Z,977.25
2018-03-22T06:47:12.999Z,977.22
2018-03-22T06:48:12.982Z,977.20
2018-03-22T06:49:12.953Z,977.18
2018-03-22T06:50:12.937Z,977.19
2018-03-22T06:51:12.914Z,977.15
2018-03-22T06:52:12.890Z,977.15
2018-03-22T06:53:12.880Z,977.14
2018-03-22T06:54:12.857Z,977.12
2018-03-22T06:55:12.831Z,977.12
2018-03-22T06:56:12.809Z,977.13
2018-03-22T06:57:12.789Z,977.16
2018-03-22T06:58:12.769Z,977.12
2018-03-22T06:59:12.756Z,977.17
2018-03-22T07:00:12.731Z,977.10
2018-03-22T07:01:12.708Z,977.15
2018-03-22T07:02:12.693Z,977.16
2018-03-22T07:03:12.664Z,977.20
2018-03-22T07:04:12.652Z,977.20
2018-03-22T07:05:12.624Z,977.19
2018-03-22T07:06:12.605Z,977.14
2018-03-22T07:07:12.587Z,977.17
2018-03-22T07:08:12.571Z,977.17
2018-03-22T07:09:12.544Z,977.15
2018-03-22T07:10:12.523Z,977.12
2018-03-22T07:11:12.504Z,977.16
2018-03-22T07:12:12.484Z,977.16
2018-03-22T07:13:12.473Z,977.13
2018-03-22T07:14:12.447Z,977.13
2018-03-22T07:15:12.424Z,977.10
2018-03-22T07:16:12.410Z,977.13
2018-03-22T07:17:12.391Z,977.13
2018-03-22T07:18:12.371Z,977.15
2018-03-22T07:19:12.351Z,977.18
2018-03-22T07:20:12.330Z,977.23
2018-03-22T07:21:12.306Z,977.14
2018-03-22T07:22:12.292Z,977.13
2018-03-22T07:23:12.266Z,977.17
2018-03-22T07:24:12.248Z,977.13
2018-03-22T07:25:12.228Z,977.12
2018-03-22T07:26:12.208Z,977.13
2018-03-22T07:27:12.189Z,977.16
2018-03-22T07:28:12.168Z,977.15
2018-03-22T07:29:12.157Z,977.15
2018-03-22T07:30:12.129Z,977.16
2018-03-22T07:31:12.115Z,977.09
2018-03-22T07:32:12.092Z,977.06
2018-03-22T07:33:12.074Z,977.07
2018-03-22T07:34:12.058Z,977.07
2018-03-22T07:35:12.033Z,977.10
2018-03-22T07:36:12.013Z,977.06
2018-03-22T07:37:11.998Z,977.07
2018-03-22T07:38:11.975Z,977.03
2018-03-22T07:39:11.956Z,977.11
2018-03-22T07:40:11.936Z,977.06
2018-03-22T07:41:11.919Z,977.05
2018-03-22T07:42:11.903Z,977.07
2018-03-22T07:43:11.883Z,977.03
2018-03-22T07:44:11.862Z,977.03
2018-03-22T07:45:11.845Z,977.04
2018-03-22T07:46:11.823Z,977.01
2018-03-22T07:47:11.811Z,977.00
2018-03-22T07:48:11.788Z,976.97
2018-03-22T07:49:11.768Z,976.98
2018-03-22T07:50:11.749Z,977.00
2018-03-22T07:51:11.730Z,976.97
2018-03-22T07:52:11.711Z,976.99
2018-03-22T07:53:11.692Z,977.00
2018-03-22T07:54:11.674Z,976.99
2018-03-22T07:55:11.662Z,976.94
2018-03-22T07:56:11.637Z,976.96
2018-03-22T07:57:11.626Z,976.93
2018-03-22T07:58:11.600Z,976.90
2018-03-22T07:59:11.590Z,976.90
2018-03-22T08:00:11.567Z,976.91
2018-03-22T08:01:11.551Z,976.92
2018-03-22T08:02:11.536Z,976.92
2018-03-22T08:03:11.510Z,976.93
2018-03-22T08:04:11.543Z,976.97
2018-03-22T08:05:11.479Z,976.95
2018-03-22T08:06:11.461Z,976.93
2018-03-22T08:07:11.442Z,976.92
2018-03-22T08:08:11.419Z,976.92
2018-03-22T08:09:11.403Z,976.89
2018-03-22T08:10:11.384Z,976.95
2018-03-22T08:11:11.367Z,976.92
2018-03-22T08:12:11.352Z,976.90
2018-03-22T08:13:11.332Z,976.88
2018-03-22T08:14:11.311Z,976.89
2018-03-22T08:15:11.303Z,976.94
2018-03-22T08:16:11.276Z,976.88
2018-03-22T08:17:11.263Z,976.87
2018-03-22T08:18:11.246Z,976.84
2018-03-22T08:19:11.226Z,976.78
2018-03-22T08:20:11.216Z,976.83
2018-03-22T08:21:11.197Z,976.80
2018-03-22T08:22:11.171Z,976.83
2018-03-22T08:23:11.157Z,976.79
2018-03-22T08:24:11.137Z,976.83
2018-03-22T08:25:11.121Z,976.80
2018-03-22T08:26:11.104Z,976.83
2018-03-22T08:27:11.086Z,976.80
2018-03-22T08:28:11.068Z,976.76
2018-03-22T08:29:11.052Z,976.80
2018-03-22T08:30:11.034Z,976.77
2018-03-22T08:31:11.026Z,976.77
2018-03-22T08:32:11.005Z,976.80
2018-03-22T08:33:10.984Z,976.75
2018-03-22T08:34:10.969Z,976.73
2018-03-22T08:35:10.954Z,976.71
2018-03-22T08:36:10.943Z,976.70
2018-03-22T08:37:10.917Z,976.73
2018-03-22T08:38:10.900Z,976.68
2018-03-22T08:39:10.883Z,976.66
2018-03-22T08:40:10.867Z,976.69
2018-03-22T08:41:10.869Z,976.68
2018-03-22T08:42:10.834Z,976.66
2018-03-22T08:43:10.827Z,976.72
2018-03-22T08:44:10.807Z,976.72
2018-03-22T08:45:10.792Z,976.66
2018-03-22T08:46:10.771Z,976.71
2018-03-22T08:47:10.759Z,976.69
2018-03-22T08:48:10.738Z,976.69
2018-03-22T08:49:10.722Z,976.63
2018-03-22T08:50:10.710Z,976.67
2018-03-22T08:51:10.691Z,976.69
2018-03-22T08:52:10.680Z,976.64
2018-03-22T08:53:10.657Z,976.66
2018-03-22T08:54:10.648Z,976.68
2018-03-22T08:55:10.627Z,976.65
2018-03-22T08:56:10.615Z,976.63
2018-03-22T08:57:10.592Z,976.62
2018-03-22T08:58:10.584Z,976.62
2018-03-22T08:59:10.560Z,976.59
2018-03-22T09:00:10.544Z,976.61
2018-03-22T09:01:10.538Z,976.59
2018-03-22T09:02:10.514Z,976.54
2018-03-22T09:03:10.498Z,976.56
2018-03-22T09:04:10.482Z,976.54
2018-03-22T09:05:10.466Z,976.62
2018-03-22T09:06:10.454Z,976.60
2018-03-22T09:07:10.443Z,976.58
2018-03-22T09:08:10.429Z,976.59
2018-03-22T09:09:10.405Z,976.59
2018-03-22T09:10:10.389Z,976.57
2018-03-22T09:11:10.372Z,976.59
2018-03-22T09:12:10.355Z,976.54
2018-03-22T09:13:10.340Z,976.54
2018-03-22T09:14:10.344Z,976.50
2018-03-22T09:15:10.314Z,976.48
2018-03-22T09:16:10.297Z,976.48
2018-03-22T09:17:10.277Z,976.49
2018-03-22T09:18:10.262Z,976.51
2018-03-22T09:19:10.247Z,976.52
2018-03-22T09:20:10.240Z,976.54
2018-03-22T09:21:10.216Z,976.55
2018-03-22T09:22:10.207Z,976.56
2018-03-22T09:23:10.192Z,976.54
2018-03-22T09:24:10.170Z,976.52
2018-03-22T09:25:10.156Z,976.54
2018-03-22T09:26:10.148Z,976.53
2018-03-22T09:27:10.127Z,976.55
2018-03-22T09:28:10.118Z,976.51
2018-03-22T09:29:10.106Z,976.56
2018-03-22T09:30:10.082Z,976.49
2018-03-22T09:31:10.072Z,976.45
2018-03-22T09:32:10.051Z,976.43
2018-03-22T09:33:10.038Z,976.44
2018-03-22T09:34:10.024Z,976.42
2018-03-22T09:35:10.007Z,976.41
2018-03-22T09:36:09.992Z,976.40
2018-03-22T09:37:09.979Z,976.40
2018-03-22T09:38:09.963Z,976.35
2018-03-22T09:39:09.949Z,976.34
2018-03-22T09:40:09.934Z,976.35
2018-03-22T09:41:09.925Z,976.39
2018-03-22T09:42:09.915Z,976.37
2018-03-22T09:43:09.898Z,976.36
2018-03-22T09:44:09.877Z,976.39
2018-03-22T09:45:09.864Z,976.35
2018-03-22T09:46:09.849Z,976.39
2018-03-22T09:47:09.833Z,976.37
2018-03-22T09:48:09.834Z,976.34
2018-03-22T09:49:09.806Z,976.32
2018-03-22T09:50:09.791Z,976.27
2018-03-22T09:51:09.779Z,976.26
2018-03-22T09:52:09.769Z,976.23
2018-03-22T09:53:09.748Z,976.22
2018-03-22T09:54:09.737Z,976.21
2018-03-22T09:55:09.721Z,976.22
2018-03-22T09:56:09.709Z,976.23
2018-03-22T09:57:09.699Z,976.19
2018-03-22T09:58:09.683Z,976.15
2018-03-22T09:59:09.665Z,976.11
2018-03-22T10:00:09.653Z,976.16
2018-03-22T10:01:09.637Z,976.18
2018-03-22T10:02:09.625Z,976.17
2018-03-22T10:03:09.611Z,976.20
2018-03-22T10:04:09.596Z,976.15
2018-03-22T10:05:09.582Z,976.15
2018-03-22T10:06:09.568Z,976.17
2018-03-22T10:07:09.555Z,976.21
2018-03-22T10:08:09.541Z,976.22
2018-03-22T10:09:09.526Z,976.14
2018-03-22T10:10:09.516Z,976.16
2018-03-22T10:11:09.499Z,976.15
2018-03-22T10:12:09.492Z,976.14
2018-03-22T10:13:09.471Z,976.15
2018-03-22T10:14:09.463Z,976.19
2018-03-22T10:15:09.443Z,976.16
2018-03-22T10:16:09.430Z,976.10
2018-03-22T10:17:09.420Z,976.12
2018-03-22T10:18:09.404Z,976.11
2018-03-22T10:19:09.387Z,976.08
2018-03-22T10:20:09.381Z,976.08
2018-03-22T10:21:09.368Z,976.04
2018-03-22T10:22:09.346Z,975.99
2018-03-22T10:23:09.338Z,975.94
2018-03-22T10:24:09.317Z,975.91
2018-03-22T10:25:09.304Z,975.88
2018-03-22T10:26:09.296Z,975.84
2018-03-22T10:27:09.278Z,975.80
2018-03-22T10:28:09.265Z,975.79
2018-03-22T10:29:09.250Z,975.80
2018-03-22T10:30:09.237Z,975.78
2018-03-22T10:31:09.230Z,975.78
2018-03-22T10:32:09.214Z,975.65
2018-03-22T10:33:09.199Z,975.62
2018-03-22T10:34:09.195Z,975.54
2018-03-22T10:35:09.177Z,975.54
2018-03-22T10:36:09.157Z,975.42
2018-03-22T10:37:09.145Z,975.46
2018-03-22T10:38:09.130Z,975.46
2018-03-22T10:39:09.119Z,975.48
2018-03-22T10:40:09.105Z,975.46
2018-03-22T10:41:09.091Z,975.43
2018-03-22T10:42:09.080Z,975.34
2018-03-22T10:43:09.068Z,975.29
2018-03-22T10:44:09.055Z,975.24
2018-03-22T10:45:09.042Z,975.25
2018-03-22T10:46:09.033Z,975.22
2018-03-22T10:47:09.021Z,975.21
2018-03-22T10:48:09.000Z,975.16
2018-03-22T10:49:08.993Z,975.17
2018-03-22T10:50:08.982Z,975.21
2018-03-22T10:51:08.969Z,975.23
2018-03-22T10:52:08.947Z,975.26
2018-03-22T10:53:08.937Z,975.27
2018-03-22T10:54:08.922Z,975.27
2018-03-22T10:55:08.913Z,975.30
2018-03-22T10:56:08.898Z,975.33
2018-03-22T10:57:08.889Z,975.26
2018-03-22T10:58:08.870Z,975.17
2018-03-22T10:59:08.858Z,975.16
2018-03-22T11:00:08.850Z,975.09
2018-03-22T11:01:08.844Z,975.02
2018-03-22T11:02:08.820Z,975.02
2018-03-22T11:03:08.807Z,974.97
2018-03-22T11:04:08.795Z,974.99
2018-03-22T11:05:08.784Z,975.01
2018-03-22T11:06:08.810Z,975.01
2018-03-22T11:07:08.761Z,975.00
2018-03-22T11:08:08.742Z,975.01
2018-03-22T11:09:08.731Z,974.95
2018-03-22T11:10:08.724Z,974.98
2018-03-22T11:11:08.705Z,974.98
2018-03-22T11:12:08.698Z,974.93
2018-03-22T11:13:08.680Z,974.89
2018-03-22T11:14:08.665Z,974.83
2018-03-22T11:15:08.653Z,974.80
2018-03-22T11:16:08.641Z,974.70
2018-03-22T11:17:08.634Z,974.67
2018-03-22T11:18:08.624Z,974.66
2018-03-22T11:19:08.609Z,974.66
2018-03-22T11:20:08.590Z,974.66
2018-03-22T11:21:08.578Z,974.66
2018-03-22T11:22:08.582Z,974.66
2018-03-22T11:23:08.554Z,974.70
2018-03-22T11:24:08.554Z,974.66
2018-03-22T11:25:08.536Z,974.68
2018-03-22T11:26:08.526Z,974.69
2018-03-22T11:27:08.513Z,974.69
2018-03-22T11:28:08.493Z,974.63
2018-03-22T11:29:08.481Z,974.64
2018-03-22T11:30:08.478Z,974.65
2018-03-22T11:31:08.457Z,974.64
2018-03-22T11:32:08.450Z,974.64
2018-03-22T11:33:08.435Z,974.64
2018-03-22T11:34:08.420Z,974.63
2018-03-22T11:35:08.416Z,974.65
2018-03-22T11:36:08.396Z,974.61
2018-03-22T11:37:08.384Z,974.59
2018-03-22T11:38:08.373Z,974.57
2018-03-22T11:39:08.367Z,974.61
2018-03-22T11:40:08.347Z,974.60
2018-03-22T11:41:08.339Z,974.57
2018-03-22T11:42:08.327Z,974.52
2018-03-22T11:43:08.313Z,974.54
2018-03-22T11:44:08.301Z,974.54
2018-03-22T11:45:08.293Z,974.50
2018-03-22T11:46:08.278Z,974.49
2018-03-22T11:47:08.267Z,974.48
2018-03-22T11:48:08.262Z,974.46
2018-03-22T11:49:08.254Z,974.47
2018-03-22T11:50:08.235Z,974.41
2018-03-22T11:51:08.222Z,974.43
2018-03-22T11:52:08.208Z,974.33
2018-03-22T11:53:08.197Z,974.34
2018-03-22T11:54:08.198Z,974.30
2018-03-22T11:55:08.175Z,974.22
2018-03-22T11:56:08.164Z,974.25
2018-03-22T11:57:08.153Z,974.20
2018-03-22T11:58:08.141Z,974.11
2018-03-22T11:59:08.165Z,974.11
2018-03-22T12:00:08.117Z,974.10
2018-03-22T12:01:08.107Z,974.02
2018-03-22T12:02:08.096Z,974.01
2018-03-22T12:03:08.084Z,973.95
2018-03-22T12:04:08.076Z,973.92
2018-03-22T12:05:08.062Z,973.94
2018-03-22T12:06:08.055Z,974.00
2018-03-22T12:07:08.049Z,973.93
2018-03-22T12:08:08.030Z,973.91
2018-03-22T12:09:08.016Z,973.90
2018-03-22T12:10:08.012Z,973.83
2018-03-22T12:11:08.050Z,973.84
2018-03-22T12:12:07.991Z,973.83
2018-03-22T12:13:07.974Z,973.78
2018-03-22T12:14:07.960Z,973.79
2018-03-22T12:15:07.951Z,973.78
2018-03-22T12:16:07.939Z,973.77
2018-03-22T12:17:07.981Z,973.74
2018-03-22T12:18:07.916Z,973.70
2018-03-22T12:19:07.907Z,973.68
2018-03-22T12:20:07.894Z,973.64
2018-03-22T12:21:07.881Z,973.64
2018-03-22T12:22:07.875Z,973.66
2018-03-22T12:23:07.861Z,973.60
2018-03-22T12:24:07.853Z,973.56
2018-03-22T12:25:07.841Z,973.54
2018-03-22T12:26:07.829Z,973.57
2018-03-22T12:27:07.812Z,973.52
2018-03-22T12:28:07.800Z,973.56